sensor_id;sensor_type;location;lat;lon;timestamp;pressure;altitude;pressure_sealevel;temperature;humidity
21728;BME280;11026;50.560;17.852;2022-07-29T00:01:41;99764.06;;;15.88;75.97
21728;BME280;11026;50.560;17.852;2022-07-29T00:04:08;99770.31;;;15.87;74.86
21728;BME280;11026;50.560;17.852;2022-07-29T00:06:35;99772.91;;;15.88;75.17
21728;BME280;11026;50.560;17.852;2022-07-29T00:09:02;99769.19;;;15.91;75.42
21728;BME280;11026;50.560;17.852;2022-07-29T00:11:31;99777.13;;;15.92;76.09
21728;BME280;11026;50.560;17.852;2022-07-29T00:14:04;99775.59;;;15.88;77.22
21728;BME280;11026;50.560;17.852;2022-07-29T00:16:33;99773.00;;;15.87;77.43
21728;BME280;11026;50.560;17.852;2022-07-29T00:19:00;99770.25;;;15.74;77.39
21728;BME280;11026;50.560;17.852;2022-07-29T00:21:37;99773.47;;;15.79;78.11
21728;BME280;11026;50.560;17.852;2022-07-29T00:24:05;99770.41;;;15.71;78.45
21728;BME280;11026;50.560;17.852;2022-07-29T00:26:32;99769.84;;;15.66;78.81
21728;BME280;11026;50.560;17.852;2022-07-29T00:29:03;99767.84;;;15.69;78.46
21728;BME280;11026;50.560;17.852;2022-07-29T00:31:51;99768.28;;;15.62;79.03
21728;BME280;11026;50.560;17.852;2022-07-29T00:34:20;99763.72;;;15.64;78.60
21728;BME280;11026;50.560;17.852;2022-07-29T00:37:05;99761.94;;;15.64;78.25
21728;BME280;11026;50.560;17.852;2022-07-29T00:39:33;99762.19;;;15.45;78.59
21728;BME280;11026;50.560;17.852;2022-07-29T00:42:03;99768.66;;;15.41;78.28
21728;BME280;11026;50.560;17.852;2022-07-29T00:44:55;99772.84;;;15.45;78.65
21728;BME280;11026;50.560;17.852;2022-07-29T00:47:22;99769.00;;;15.35;78.32
21728;BME280;11026;50.560;17.852;2022-07-29T00:49:51;99762.31;;;15.28;79.08
21728;BME280;11026;50.560;17.852;2022-07-29T00:52:21;99766.50;;;15.18;79.28
21728;BME280;11026;50.560;17.852;2022-07-29T00:54:48;99768.56;;;15.13;79.51
21728;BME280;11026;50.560;17.852;2022-07-29T00:57:17;99759.47;;;15.17;79.61
21728;BME280;11026;50.560;17.852;2022-07-29T00:59:45;99759.47;;;15.17;79.32
21728;BME280;11026;50.560;17.852;2022-07-29T01:02:12;99757.72;;;15.16;79.34
21728;BME280;11026;50.560;17.852;2022-07-29T01:04:41;99756.91;;;14.99;79.76
21728;BME280;11026;50.560;17.852;2022-07-29T01:07:08;99758.53;;;15.02;80.12
21728;BME280;11026;50.560;17.852;2022-07-29T01:09:38;99753.28;;;15.00;80.22
21728;BME280;11026;50.560;17.852;2022-07-29T01:12:17;99744.66;;;15.11;79.59
21728;BME280;11026;50.560;17.852;2022-07-29T01:14:47;99746.66;;;15.08;79.50
21728;BME280;11026;50.560;17.852;2022-07-29T01:17:28;99750.84;;;15.12;78.41
21728;BME280;11026;50.560;17.852;2022-07-29T01:32:31;99752.31;;;14.87;80.06
21728;BME280;11026;50.560;17.852;2022-07-29T01:35:14;99754.56;;;14.79;79.92
21728;BME280;11026;50.560;17.852;2022-07-29T01:37:48;99757.38;;;14.76;80.61
21728;BME280;11026;50.560;17.852;2022-07-29T01:40:30;99755.41;;;14.80;79.63
21728;BME280;11026;50.560;17.852;2022-07-29T01:43:18;99759.72;;;14.82;78.73
21728;BME280;11026;50.560;17.852;2022-07-29T01:45:57;99757.78;;;14.84;78.53
21728;BME280;11026;50.560;17.852;2022-07-29T01:48:48;99752.31;;;14.87;78.29
21728;BME280;11026;50.560;17.852;2022-07-29T01:51:23;99749.06;;;14.82;78.64
21728;BME280;11026;50.560;17.852;2022-07-29T01:54:02;99752.66;;;14.81;78.25
21728;BME280;11026;50.560;17.852;2022-07-29T01:56:35;99758.84;;;14.82;77.73
21728;BME280;11026;50.560;17.852;2022-07-29T01:59:04;99747.06;;;14.86;77.53
21728;BME280;11026;50.560;17.852;2022-07-29T02:01:35;99749.47;;;14.90;77.19
21728;BME280;11026;50.560;17.852;2022-07-29T02:04:08;99745.09;;;14.89;77.08
21728;BME280;11026;50.560;17.852;2022-07-29T02:06:53;99745.09;;;14.89;76.90
21728;BME280;11026;50.560;17.852;2022-07-29T02:09:24;99746.13;;;14.87;76.91
21728;BME280;11026;50.560;17.852;2022-07-29T02:11:53;99735.75;;;14.82;76.92
21728;BME280;11026;50.560;17.852;2022-07-29T02:14:23;99738.41;;;14.82;77.06
21728;BME280;11026;50.560;17.852;2022-07-29T02:17:19;99747.81;;;14.88;77.07
21728;BME280;11026;50.560;17.852;2022-07-29T02:19:48;99741.81;;;14.84;77.00
21728;BME280;11026;50.560;17.852;2022-07-29T02:22:19;99740.97;;;14.84;77.27
21728;BME280;11026;50.560;17.852;2022-07-29T02:24:50;99740.09;;;14.83;77.19
21728;BME280;11026;50.560;17.852;2022-07-29T02:27:19;99745.59;;;14.80;76.94
21728;BME280;11026;50.560;17.852;2022-07-29T02:29:50;99738.97;;;14.87;76.89
21728;BME280;11026;50.560;17.852;2022-07-29T02:32:25;99739.75;;;14.89;76.82
21728;BME280;11026;50.560;17.852;2022-07-29T02:34:56;99739.25;;;14.83;76.86
21728;BME280;11026;50.560;17.852;2022-07-29T02:37:25;99744.16;;;14.74;76.52
21728;BME280;11026;50.560;17.852;2022-07-29T02:39:54;99742.09;;;14.80;76.70
21728;BME280;11026;50.560;17.852;2022-07-29T02:42:23;99737.88;;;14.75;76.63
21728;BME280;11026;50.560;17.852;2022-07-29T02:44:53;99730.06;;;14.72;76.75
21728;BME280;11026;50.560;17.852;2022-07-29T02:50:21;99738.94;;;14.73;76.98
21728;BME280;11026;50.560;17.852;2022-07-29T02:53:13;99725.69;;;14.71;76.80
21728;BME280;11026;50.560;17.852;2022-07-29T02:56:10;99728.63;;;14.67;76.84
21728;BME280;11026;50.560;17.852;2022-07-29T02:58:47;99724.06;;;14.69;76.80
21728;BME280;11026;50.560;17.852;2022-07-29T03:01:22;99726.06;;;14.65;76.79
21728;BME280;11026;50.560;17.852;2022-07-29T03:03:50;99724.44;;;14.63;76.82
21728;BME280;11026;50.560;17.852;2022-07-29T03:06:42;99719.88;;;14.49;77.27
21728;BME280;11026;50.560;17.852;2022-07-29T03:09:11;99722.78;;;14.44;77.65
21728;BME280;11026;50.560;17.852;2022-07-29T03:11:49;99728.31;;;14.41;77.81
21728;BME280;11026;50.560;17.852;2022-07-29T03:14:20;99727.63;;;14.38;78.43
21728;BME280;11026;50.560;17.852;2022-07-29T03:16:55;99736.03;;;14.30;78.89
21728;BME280;11026;50.560;17.852;2022-07-29T03:19:31;99737.88;;;13.96;80.54
21728;BME280;11026;50.560;17.852;2022-07-29T03:21:59;99735.50;;;14.08;80.85
21728;BME280;11026;50.560;17.852;2022-07-29T03:24:31;99739.28;;;14.19;80.38
21728;BME280;11026;50.560;17.852;2022-07-29T03:27:00;99732.94;;;14.22;80.22
21728;BME280;11026;50.560;17.852;2022-07-29T03:29:58;99740.13;;;14.36;79.65
21728;BME280;11026;50.560;17.852;2022-07-29T03:32:35;99739.97;;;14.39;79.40
21728;BME280;11026;50.560;17.852;2022-07-29T03:35:07;99738.25;;;14.38;79.02
21728;BME280;11026;50.560;17.852;2022-07-29T03:37:36;99736.44;;;14.38;79.10
21728;BME280;11026;50.560;17.852;2022-07-29T03:40:22;99738.28;;;14.54;78.75
21728;BME280;11026;50.560;17.852;2022-07-29T03:43:05;99736.78;;;14.64;78.74
21728;BME280;11026;50.560;17.852;2022-07-29T03:45:35;99736.72;;;14.65;78.34
21728;BME280;11026;50.560;17.852;2022-07-29T03:48:10;99749.59;;;14.73;78.81
21728;BME280;11026;50.560;17.852;2022-07-29T03:50:41;99747.84;;;14.72;78.47
21728;BME280;11026;50.560;17.852;2022-07-29T03:53:08;99739.59;;;14.76;78.42
21728;BME280;11026;50.560;17.852;2022-07-29T03:55:52;99726.03;;;14.81;78.25
21728;BME280;11026;50.560;17.852;2022-07-29T03:58:23;99722.66;;;14.93;78.08
21728;BME280;11026;50.560;17.852;2022-07-29T04:00:53;99724.75;;;15.03;77.94
21728;BME280;11026;50.560;17.852;2022-07-29T04:03:22;99717.56;;;15.05;78.08
21728;BME280;11026;50.560;17.852;2022-07-29T04:06:07;99716.00;;;15.00;78.58
21728;BME280;11026;50.560;17.852;2022-07-29T04:08:34;99707.66;;;15.07;78.50
21728;BME280;11026;50.560;17.852;2022-07-29T04:11:14;99719.38;;;15.18;78.15
21728;BME280;11026;50.560;17.852;2022-07-29T04:13:47;99712.63;;;15.27;77.74
21728;BME280;11026;50.560;17.852;2022-07-29T04:16:25;99715.88;;;15.32;77.15
21728;BME280;11026;50.560;17.852;2022-07-29T04:18:59;99719.31;;;15.34;77.10
21728;BME280;11026;50.560;17.852;2022-07-29T04:21:27;99716.69;;;15.48;76.21
21728;BME280;11026;50.560;17.852;2022-07-29T04:23:57;99726.66;;;15.59;75.41
21728;BME280;11026;50.560;17.852;2022-07-29T04:26:31;99734.72;;;15.73;74.98
21728;BME280;11026;50.560;17.852;2022-07-29T04:29:36;99734.22;;;15.81;74.63
21728;BME280;11026;50.560;17.852;2022-07-29T04:32:23;99740.97;;;15.87;74.21
21728;BME280;11026;50.560;17.852;2022-07-29T04:35:06;99739.66;;;15.94;74.28
21728;BME280;11026;50.560;17.852;2022-07-29T04:37:33;99729.28;;;16.04;73.86
21728;BME280;11026;50.560;17.852;2022-07-29T04:40:00;99729.66;;;16.12;73.12
21728;BME280;11026;50.560;17.852;2022-07-29T04:42:39;99725.97;;;16.27;72.98
21728;BME280;11026;50.560;17.852;2022-07-29T04:45:22;99736.72;;;16.40;72.42
21728;BME280;11026;50.560;17.852;2022-07-29T04:47:49;99736.00;;;16.51;72.24
21728;BME280;11026;50.560;17.852;2022-07-29T04:50:18;99732.75;;;16.60;71.54
21728;BME280;11026;50.560;17.852;2022-07-29T04:52:45;99729.47;;;16.69;71.48
21728;BME280;11026;50.560;17.852;2022-07-29T04:55:12;99728.63;;;16.83;71.77
21728;BME280;11026;50.560;17.852;2022-07-29T04:57:39;99731.63;;;16.91;71.29
21728;BME280;11026;50.560;17.852;2022-07-29T05:00:08;99729.06;;;17.02;70.94
21728;BME280;11026;50.560;17.852;2022-07-29T05:02:37;99740.00;;;17.12;70.64
21728;BME280;11026;50.560;17.852;2022-07-29T05:05:04;99740.13;;;17.23;70.63
21728;BME280;11026;50.560;17.852;2022-07-29T05:07:31;99740.25;;;17.34;70.15
21728;BME280;11026;50.560;17.852;2022-07-29T05:09:58;99747.53;;;17.45;69.84
21728;BME280;11026;50.560;17.852;2022-07-29T05:12:33;99739.50;;;17.58;69.54
21728;BME280;11026;50.560;17.852;2022-07-29T05:15:00;99742.84;;;17.74;68.33
21728;BME280;11026;50.560;17.852;2022-07-29T05:17:33;99739.00;;;17.91;67.59
21728;BME280;11026;50.560;17.852;2022-07-29T05:20:01;99737.91;;;18.06;67.18
21728;BME280;11026;50.560;17.852;2022-07-29T05:22:31;99727.81;;;18.23;66.65
21728;BME280;11026;50.560;17.852;2022-07-29T05:25:06;99725.28;;;18.32;65.83
21728;BME280;11026;50.560;17.852;2022-07-29T05:27:36;99721.97;;;18.41;66.32
21728;BME280;11026;50.560;17.852;2022-07-29T05:30:06;99723.09;;;18.50;65.72
21728;BME280;11026;50.560;17.852;2022-07-29T05:32:34;99725.31;;;18.56;65.68
21728;BME280;11026;50.560;17.852;2022-07-29T05:35:01;99733.38;;;18.80;65.22
21728;BME280;11026;50.560;17.852;2022-07-29T05:37:28;99716.63;;;18.89;63.98
21728;BME280;11026;50.560;17.852;2022-07-29T05:39:58;99728.13;;;19.03;63.70
21728;BME280;11026;50.560;17.852;2022-07-29T05:42:31;99727.41;;;19.12;63.80
21728;BME280;11026;50.560;17.852;2022-07-29T05:45:06;99726.63;;;19.34;63.07
21728;BME280;11026;50.560;17.852;2022-07-29T05:47:48;99726.75;;;19.44;63.08
21728;BME280;11026;50.560;17.852;2022-07-29T05:50:17;99720.94;;;19.50;62.88
21728;BME280;11026;50.560;17.852;2022-07-29T05:52:44;99728.31;;;19.70;63.14
21728;BME280;11026;50.560;17.852;2022-07-29T05:55:13;99730.50;;;19.87;62.03
21728;BME280;11026;50.560;17.852;2022-07-29T05:57:40;99727.44;;;20.14;61.56
21728;BME280;11026;50.560;17.852;2022-07-29T06:00:15;99730.25;;;20.35;60.49
21728;BME280;11026;50.560;17.852;2022-07-29T06:02:46;99728.75;;;20.54;60.58
21728;BME280;11026;50.560;17.852;2022-07-29T06:08:10;99728.69;;;20.76;58.78
21728;BME280;11026;50.560;17.852;2022-07-29T06:10:37;99729.94;;;20.72;59.39
21728;BME280;11026;50.560;17.852;2022-07-29T06:13:09;99732.19;;;20.88;59.21
21728;BME280;11026;50.560;17.852;2022-07-29T06:15:37;99723.53;;;20.84;59.51
21728;BME280;11026;50.560;17.852;2022-07-29T06:18:05;99716.97;;;20.98;59.27
21728;BME280;11026;50.560;17.852;2022-07-29T06:20:36;99720.53;;;20.99;59.28
21728;BME280;11026;50.560;17.852;2022-07-29T06:23:03;99729.03;;;21.15;59.51
21728;BME280;11026;50.560;17.852;2022-07-29T06:25:33;99722.59;;;21.27;59.21
21728;BME280;11026;50.560;17.852;2022-07-29T06:28:02;99726.50;;;21.34;58.91
21728;BME280;11026;50.560;17.852;2022-07-29T06:30:35;99722.78;;;21.56;58.30
21728;BME280;11026;50.560;17.852;2022-07-29T06:33:08;99728.28;;;21.76;57.82
21728;BME280;11026;50.560;17.852;2022-07-29T06:35:35;99730.03;;;21.87;57.25
21728;BME280;11026;50.560;17.852;2022-07-29T06:38:12;99732.50;;;21.99;56.17
21728;BME280;11026;50.560;17.852;2022-07-29T06:41:11;99729.34;;;22.15;57.01
21728;BME280;11026;50.560;17.852;2022-07-29T06:43:44;99722.75;;;22.39;55.65
21728;BME280;11026;50.560;17.852;2022-07-29T06:46:19;99730.59;;;22.71;55.65
21728;BME280;11026;50.560;17.852;2022-07-29T06:48:48;99720.97;;;23.07;54.75
21728;BME280;11026;50.560;17.852;2022-07-29T06:51:17;99725.50;;;23.45;55.02
21728;BME280;11026;50.560;17.852;2022-07-29T06:53:51;99728.00;;;23.76;53.42
21728;BME280;11026;50.560;17.852;2022-07-29T06:56:30;99721.66;;;23.95;51.79
21728;BME280;11026;50.560;17.852;2022-07-29T06:59:05;99716.03;;;23.78;51.29
21728;BME280;11026;50.560;17.852;2022-07-29T07:01:35;99717.59;;;23.81;52.35
21728;BME280;11026;50.560;17.852;2022-07-29T07:04:05;99719.47;;;23.80;52.61
21728;BME280;11026;50.560;17.852;2022-07-29T07:06:33;99721.09;;;23.91;52.21
21728;BME280;11026;50.560;17.852;2022-07-29T07:09:07;99713.44;;;23.87;52.31
21728;BME280;11026;50.560;17.852;2022-07-29T07:11:34;99724.22;;;23.96;53.00
21728;BME280;11026;50.560;17.852;2022-07-29T07:14:03;99719.94;;;24.03;53.08
21728;BME280;11026;50.560;17.852;2022-07-29T07:16:33;99717.53;;;24.00;52.71
21728;BME280;11026;50.560;17.852;2022-07-29T07:19:01;99707.06;;;23.88;53.16
21728;BME280;11026;50.560;17.852;2022-07-29T07:21:29;99703.00;;;23.64;53.35
21728;BME280;11026;50.560;17.852;2022-07-29T07:23:58;99708.69;;;23.51;53.92
21728;BME280;11026;50.560;17.852;2022-07-29T07:26:28;99713.84;;;23.45;54.08
21728;BME280;11026;50.560;17.852;2022-07-29T07:29:04;99720.81;;;23.38;54.44
21728;BME280;11026;50.560;17.852;2022-07-29T07:31:32;99717.69;;;23.42;54.90
21728;BME280;11026;50.560;17.852;2022-07-29T07:33:59;99708.56;;;23.53;54.59
21728;BME280;11026;50.560;17.852;2022-07-29T07:36:55;99702.41;;;23.70;54.25
21728;BME280;11026;50.560;17.852;2022-07-29T07:39:24;99708.34;;;23.84;53.85
21728;BME280;11026;50.560;17.852;2022-07-29T07:41:53;99705.34;;;23.87;53.59
21728;BME280;11026;50.560;17.852;2022-07-29T07:44:20;99707.88;;;23.98;53.27
21728;BME280;11026;50.560;17.852;2022-07-29T07:46:52;99708.53;;;24.10;53.23
21728;BME280;11026;50.560;17.852;2022-07-29T07:49:20;99711.03;;;24.21;53.12
21728;BME280;11026;50.560;17.852;2022-07-29T07:51:54;99707.31;;;24.22;53.39
21728;BME280;11026;50.560;17.852;2022-07-29T07:54:27;99712.66;;;24.41;52.77
21728;BME280;11026;50.560;17.852;2022-07-29T07:56:56;99710.50;;;24.45;52.89
21728;BME280;11026;50.560;17.852;2022-07-29T07:59:28;99715.06;;;24.62;52.68
21728;BME280;11026;50.560;17.852;2022-07-29T08:01:55;99713.81;;;24.74;52.10
21728;BME280;11026;50.560;17.852;2022-07-29T08:04:23;99709.44;;;24.91;52.06
21728;BME280;11026;50.560;17.852;2022-07-29T08:06:55;99721.19;;;25.00;51.47
21728;BME280;11026;50.560;17.852;2022-07-29T08:09:25;99707.66;;;25.00;50.94
21728;BME280;11026;50.560;17.852;2022-07-29T08:12:02;99719.72;;;24.88;51.57
21728;BME280;11026;50.560;17.852;2022-07-29T08:15:08;99726.44;;;24.84;52.28
21728;BME280;11026;50.560;17.852;2022-07-29T08:17:38;99727.28;;;24.66;51.56
21728;BME280;11026;50.560;17.852;2022-07-29T08:20:08;99730.25;;;24.45;52.05
21728;BME280;11026;50.560;17.852;2022-07-29T08:22:35;99719.28;;;24.47;51.97
21728;BME280;11026;50.560;17.852;2022-07-29T08:25:04;99713.28;;;24.53;52.44
21728;BME280;11026;50.560;17.852;2022-07-29T08:27:31;99707.88;;;24.53;52.13
21728;BME280;11026;50.560;17.852;2022-07-29T08:30:09;99714.69;;;24.57;52.75
21728;BME280;11026;50.560;17.852;2022-07-29T08:32:38;99714.69;;;24.57;51.79
21728;BME280;11026;50.560;17.852;2022-07-29T08:35:26;99717.75;;;24.62;52.70
21728;BME280;11026;50.560;17.852;2022-07-29T08:38:00;99717.16;;;24.68;52.53
21728;BME280;11026;50.560;17.852;2022-07-29T08:40:28;99713.31;;;24.71;51.77
21728;BME280;11026;50.560;17.852;2022-07-29T08:43:09;99709.44;;;24.73;52.59
21728;BME280;11026;50.560;17.852;2022-07-29T08:45:49;99719.63;;;24.62;51.76
21728;BME280;11026;50.560;17.852;2022-07-29T08:48:19;99718.38;;;24.56;52.36
21728;BME280;11026;50.560;17.852;2022-07-29T08:51:02;99728.03;;;24.59;52.79
21728;BME280;11026;50.560;17.852;2022-07-29T08:53:30;99721.69;;;24.50;53.10
21728;BME280;11026;50.560;17.852;2022-07-29T08:56:01;99723.50;;;24.59;53.17
21728;BME280;11026;50.560;17.852;2022-07-29T08:58:32;99728.50;;;24.54;52.69
21728;BME280;11026;50.560;17.852;2022-07-29T09:01:05;99731.81;;;24.48;53.62
21728;BME280;11026;50.560;17.852;2022-07-29T09:03:45;99722.19;;;24.36;54.17
21728;BME280;11026;50.560;17.852;2022-07-29T09:06:21;99724.59;;;24.39;55.49
21728;BME280;11026;50.560;17.852;2022-07-29T09:08:50;99731.72;;;24.40;54.94
21728;BME280;11026;50.560;17.852;2022-07-29T09:11:18;99735.63;;;24.27;56.08
21728;BME280;11026;50.560;17.852;2022-07-29T09:13:47;99734.44;;;24.40;57.18
21728;BME280;11026;50.560;17.852;2022-07-29T09:16:17;99732.59;;;24.30;57.35
21728;BME280;11026;50.560;17.852;2022-07-29T09:19:19;99724.38;;;24.22;58.52
21728;BME280;11026;50.560;17.852;2022-07-29T09:21:48;99721.00;;;24.20;59.29
21728;BME280;11026;50.560;17.852;2022-07-29T09:24:43;99721.56;;;24.14;58.88
21728;BME280;11026;50.560;17.852;2022-07-29T09:27:25;99722.97;;;24.18;61.81
21728;BME280;11026;50.560;17.852;2022-07-29T09:32:29;99713.59;;;23.85;62.92
21728;BME280;11026;50.560;17.852;2022-07-29T09:35:17;99710.09;;;23.65;64.79
21728;BME280;11026;50.560;17.852;2022-07-29T09:37:54;99701.28;;;23.63;68.27
21728;BME280;11026;50.560;17.852;2022-07-29T09:40:27;99701.28;;;23.63;68.63
21728;BME280;11026;50.560;17.852;2022-07-29T09:42:55;99695.31;;;23.60;68.63
21728;BME280;11026;50.560;17.852;2022-07-29T09:45:32;99696.75;;;23.54;70.27
21728;BME280;11026;50.560;17.852;2022-07-29T09:48:13;99705.25;;;23.59;72.15
21728;BME280;11026;50.560;17.852;2022-07-29T09:50:55;99707.16;;;23.49;71.69
21728;BME280;11026;50.560;17.852;2022-07-29T09:53:37;99712.13;;;23.44;70.72
21728;BME280;11026;50.560;17.852;2022-07-29T09:56:05;99711.31;;;23.14;73.27
21728;BME280;11026;50.560;17.852;2022-07-29T09:58:34;99714.41;;;22.71;75.79
21728;BME280;11026;50.560;17.852;2022-07-29T10:01:07;99701.75;;;22.52;78.52
21728;BME280;11026;50.560;17.852;2022-07-29T10:03:57;99675.53;;;22.64;82.75
21728;BME280;11026;50.560;17.852;2022-07-29T10:06:30;99666.59;;;22.63;83.10
21728;BME280;11026;50.560;17.852;2022-07-29T10:09:08;99672.25;;;22.60;81.86
21728;BME280;11026;50.560;17.852;2022-07-29T10:11:36;99689.03;;;22.73;82.58
21728;BME280;11026;50.560;17.852;2022-07-29T10:14:16;99698.25;;;22.90;82.27
21728;BME280;11026;50.560;17.852;2022-07-29T10:16:46;99698.84;;;22.94;79.73
21728;BME280;11026;50.560;17.852;2022-07-29T10:19:14;99706.78;;;22.86;77.81
21728;BME280;11026;50.560;17.852;2022-07-29T10:21:42;99700.25;;;22.98;80.11
21728;BME280;11026;50.560;17.852;2022-07-29T10:24:13;99703.22;;;22.66;81.21
21728;BME280;11026;50.560;17.852;2022-07-29T10:26:50;99703.03;;;22.48;82.83
21728;BME280;11026;50.560;17.852;2022-07-29T10:29:27;99699.06;;;22.52;81.67
21728;BME280;11026;50.560;17.852;2022-07-29T10:43:48;99691.56;;;22.84;78.60
21728;BME280;11026;50.560;17.852;2022-07-29T10:46:20;99692.84;;;23.19;78.64
21728;BME280;11026;50.560;17.852;2022-07-29T10:49:16;99691.94;;;23.48;76.58
21728;BME280;11026;50.560;17.852;2022-07-29T10:52:10;99692.47;;;23.71;74.72
21728;BME280;11026;50.560;17.852;2022-07-29T10:54:57;99695.25;;;23.89;71.21
21728;BME280;11026;50.560;17.852;2022-07-29T10:57:33;99686.75;;;24.11;74.19
21728;BME280;11026;50.560;17.852;2022-07-29T11:00:28;99690.97;;;24.23;74.45
21728;BME280;11026;50.560;17.852;2022-07-29T11:02:59;99689.22;;;24.04;74.47
21728;BME280;11026;50.560;17.852;2022-07-29T11:05:56;99689.56;;;23.92;75.94
21728;BME280;11026;50.560;17.852;2022-07-29T11:08:28;99689.38;;;23.66;77.61
21728;BME280;11026;50.560;17.852;2022-07-29T11:13:52;99687.50;;;23.66;73.06
21728;BME280;11026;50.560;17.852;2022-07-29T11:17:06;99680.69;;;23.99;73.14
21728;BME280;11026;50.560;17.852;2022-07-29T11:19:39;99679.22;;;24.33;72.68
21728;BME280;11026;50.560;17.852;2022-07-29T11:22:36;99687.03;;;24.63;72.15
21728;BME280;11026;50.560;17.852;2022-07-29T11:25:17;99686.09;;;24.72;70.15
21728;BME280;11026;50.560;17.852;2022-07-29T11:28:26;99673.66;;;24.80;68.53
21728;BME280;11026;50.560;17.852;2022-07-29T11:30:57;99671.78;;;24.98;68.58
21728;BME280;11026;50.560;17.852;2022-07-29T11:33:30;99680.84;;;25.07;68.09
21728;BME280;11026;50.560;17.852;2022-07-29T11:36:18;99678.91;;;25.17;67.39
21728;BME280;11026;50.560;17.852;2022-07-29T11:45:00;99698.50;;;25.11;64.34
21728;BME280;11026;50.560;17.852;2022-07-29T11:47:55;99715.00;;;24.90;62.99
21728;BME280;11026;50.560;17.852;2022-07-29T11:50:36;99722.56;;;24.86;63.93
21728;BME280;11026;50.560;17.852;2022-07-29T11:53:19;99740.50;;;24.69;64.55
21728;BME280;11026;50.560;17.852;2022-07-29T11:55:54;99713.06;;;24.64;77.51
21728;BME280;11026;50.560;17.852;2022-07-29T11:58:25;99668.03;;;24.27;79.61
21728;BME280;11026;50.560;17.852;2022-07-29T12:00:55;99642.81;;;23.82;78.92
21728;BME280;11026;50.560;17.852;2022-07-29T12:03:26;99643.94;;;23.42;79.47
21728;BME280;11026;50.560;17.852;2022-07-29T12:06:12;99642.34;;;22.92;79.22
21728;BME280;11026;50.560;17.852;2022-07-29T12:08:46;99639.34;;;22.56;79.68
21728;BME280;11026;50.560;17.852;2022-07-29T12:11:21;99635.22;;;22.52;81.70
21728;BME280;11026;50.560;17.852;2022-07-29T12:17:04;99658.63;;;22.52;83.48
21728;BME280;11026;50.560;17.852;2022-07-29T12:19:44;99663.59;;;22.47;84.56
21728;BME280;11026;50.560;17.852;2022-07-29T12:22:35;99660.75;;;22.48;83.82
21728;BME280;11026;50.560;17.852;2022-07-29T12:25:14;99657.50;;;22.54;85.57
21728;BME280;11026;50.560;17.852;2022-07-29T12:28:13;99652.94;;;22.65;85.88
21728;BME280;11026;50.560;17.852;2022-07-29T12:31:12;99651.41;;;22.81;84.49
21728;BME280;11026;50.560;17.852;2022-07-29T12:34:01;99646.03;;;22.81;85.04
21728;BME280;11026;50.560;17.852;2022-07-29T12:36:34;99647.84;;;23.00;86.17
21728;BME280;11026;50.560;17.852;2022-07-29T12:39:02;99652.81;;;23.15;85.78
21728;BME280;11026;50.560;17.852;2022-07-29T12:41:30;99653.50;;;23.26;84.88
21728;BME280;11026;50.560;17.852;2022-07-29T12:43:59;99659.59;;;23.38;82.53
21728;BME280;11026;50.560;17.852;2022-07-29T12:46:27;99645.06;;;23.49;81.53
21728;BME280;11026;50.560;17.852;2022-07-29T12:48:54;99652.41;;;23.66;81.33
21728;BME280;11026;50.560;17.852;2022-07-29T12:51:34;99646.38;;;23.82;79.93
21728;BME280;11026;50.560;17.852;2022-07-29T12:54:13;99647.41;;;23.99;81.47
21728;BME280;11026;50.560;17.852;2022-07-29T12:56:44;99634.72;;;24.09;82.27
21728;BME280;11026;50.560;17.852;2022-07-29T12:59:21;99636.19;;;24.21;81.11
21728;BME280;11026;50.560;17.852;2022-07-29T13:01:51;99636.66;;;24.35;80.03
21728;BME280;11026;50.560;17.852;2022-07-29T13:04:29;99630.88;;;24.29;79.01
21728;BME280;11026;50.560;17.852;2022-07-29T13:07:01;99632.97;;;24.36;79.38
21728;BME280;11026;50.560;17.852;2022-07-29T13:12:16;99626.75;;;24.53;77.82
21728;BME280;11026;50.560;17.852;2022-07-29T13:14:45;99611.91;;;24.57;80.53
21728;BME280;11026;50.560;17.852;2022-07-29T13:17:21;99624.13;;;24.61;80.24
21728;BME280;11026;50.560;17.852;2022-07-29T13:20:09;99621.88;;;24.57;79.53
21728;BME280;11026;50.560;17.852;2022-07-29T13:22:40;99620.03;;;24.39;78.38
21728;BME280;11026;50.560;17.852;2022-07-29T13:25:10;99616.47;;;24.39;79.68
21728;BME280;11026;50.560;17.852;2022-07-29T13:27:38;99617.19;;;24.31;79.35
21728;BME280;11026;50.560;17.852;2022-07-29T13:30:09;99605.88;;;24.27;77.78
21728;BME280;11026;50.560;17.852;2022-07-29T13:32:37;99612.03;;;24.20;78.38
21728;BME280;11026;50.560;17.852;2022-07-29T13:35:06;99613.34;;;24.16;78.01
21728;BME280;11026;50.560;17.852;2022-07-29T13:37:35;99613.91;;;24.19;78.36
21728;BME280;11026;50.560;17.852;2022-07-29T13:40:07;99626.47;;;24.28;77.30
21728;BME280;11026;50.560;17.852;2022-07-29T13:42:36;99626.47;;;24.28;79.47
21728;BME280;11026;50.560;17.852;2022-07-29T13:45:04;99631.59;;;24.32;78.84
21728;BME280;11026;50.560;17.852;2022-07-29T13:47:31;99634.22;;;24.23;76.36
21728;BME280;11026;50.560;17.852;2022-07-29T13:50:01;99642.28;;;24.05;77.41
21728;BME280;11026;50.560;17.852;2022-07-29T13:52:36;99650.06;;;23.81;77.12
21728;BME280;11026;50.560;17.852;2022-07-29T13:55:06;99652.22;;;23.77;76.53
21728;BME280;11026;50.560;17.852;2022-07-29T13:57:34;99655.22;;;23.74;78.18
21728;BME280;11026;50.560;17.852;2022-07-29T14:00:01;99646.09;;;23.75;79.10
21728;BME280;11026;50.560;17.852;2022-07-29T14:02:30;99637.41;;;24.09;78.65
21728;BME280;11026;50.560;17.852;2022-07-29T14:04:58;99623.59;;;24.40;77.83
21728;BME280;11026;50.560;17.852;2022-07-29T14:07:28;99625.88;;;24.70;76.72
21728;BME280;11026;50.560;17.852;2022-07-29T14:09:55;99626.81;;;24.79;74.91
21728;BME280;11026;50.560;17.852;2022-07-29T14:12:22;99625.03;;;24.88;75.12
21728;BME280;11026;50.560;17.852;2022-07-29T14:14:50;99631.34;;;24.78;72.86